EEEI

Details ICAO EEEI
Name AMARI
Region Estonia
Timezone Europe/Tallinn (UTC+2.0)
Plans Departing 8
Arriving 9
Stats Elevation 65 ft / 20 m (AMSL)
Location 59.260295° 24.208504°
Runways 1
Magnetic Variation 8.364° E
Sunrise 2017-12-11 07:10:11 UTC / 2017-12-11 09:10:11 Local
Sunset 2017-12-11 13:25:31 UTC / 2017-12-11 15:25:31 Local
Advertisement - Login to hide

Runways

ID Width Length Bearing (true) Bearing (mag) Surface Threshold Offset Overrun Length
07 148 ft / 45 m 6,557 ft / 1,999 m 70.64° 62.28° Concrete 0 ft / 0 m 0 ft / 0 m
25 148 ft / 45 m 6,557 ft / 1,999 m 250.67° 242.31° Concrete 0 ft / 0 m 0 ft / 0 m

Map

Weather


0- 5 10 15 20 25 30 35+ Temperature / ° C

Clouds and Precipitation
Forecast for 2017-12-11 18:00 UTC. Updated 29 minutes ago

Ground ~20,000 ft ~40,000 ft Winds

METAR

EEEI 111650Z 08009KT 9999 SCT015 M02/M04 Q1001 R06/190095 NOSIG

TAF

TAF EEEI 111130Z 1112/1212 11010KT 9999 SCT035 TEMPO 1115/1201 BKN010 OVC018 TEMPO 1118/1201 4000 SN TEMPO 1201/1207 2000 SN BKN003 OVC010 TEMPO 1207/1212 3000 SNRA BKN004 OVC014

Frequencies

Tower 120.90 MHz INFO
Warning: Do not use this data for real-world aviation or navigation. No guarantee of current accuracy is given.